Terminal Aerodrome Forecast
Issued by NWS Green Bay, WI

Home | Current Version | Previous Version | Graphics & Text | Print | Product List | Glossary On
Versions: 1 2 3 4 5 6 7 8 9 10 11 12 13 14 15 16 17 18 19 20 21 22 23 24 25 26 27
000
FTUS43 KGRB 252300
TAFGRB
TAF
KGRB 252336Z 2600/2624 21006KT P6SM BKN200
     FM260300 25004KT P6SM SCT250
     FM260800 29005KT P6SM BKN120
     FM261600 28008G14KT P6SM BKN200=

USA.gov is the U.S. government's official web portal to all federal, state and local government web resources and services.